createdAt,value
2019-03-03T00:00:34.855Z,7.37
2019-03-03T00:01:34.865Z,7.37
2019-03-03T00:02:34.849Z,7.34
2019-03-03T00:03:34.867Z,7.34
2019-03-03T00:04:34.865Z,7.34
2019-03-03T00:05:34.855Z,7.34
2019-03-03T00:06:34.836Z,7.34
2019-03-03T00:07:34.846Z,7.32
2019-03-03T00:08:34.834Z,7.33
2019-03-03T00:09:34.828Z,7.34
2019-03-03T00:10:34.815Z,7.34
2019-03-03T00:11:34.836Z,7.35
2019-03-03T00:12:34.833Z,7.34
2019-03-03T00:13:34.860Z,7.35
2019-03-03T00:14:34.836Z,7.33
2019-03-03T00:15:34.803Z,7.33
2019-03-03T00:16:34.847Z,7.31
2019-03-03T00:17:34.817Z,7.3
2019-03-03T00:18:34.819Z,7.31
2019-03-03T00:19:34.826Z,7.31
2019-03-03T00:20:34.821Z,7.3
2019-03-03T00:21:34.816Z,7.29
2019-03-03T00:22:34.837Z,7.28
2019-03-03T00:23:34.826Z,7.29
2019-03-03T00:24:34.811Z,7.27
2019-03-03T00:25:34.839Z,7.29
2019-03-03T00:26:35.098Z,7.3
2019-03-03T00:27:34.891Z,7.28
2019-03-03T00:28:34.817Z,7.27
2019-03-03T00:29:34.827Z,7.29
2019-03-03T00:30:34.808Z,7.29
2019-03-03T00:31:34.833Z,7.28
2019-03-03T00:32:34.836Z,7.29
2019-03-03T00:33:34.816Z,7.29
2019-03-03T00:34:34.802Z,7.29
2019-03-03T00:35:34.816Z,7.28
2019-03-03T00:36:34.851Z,7.29
2019-03-03T00:37:34.787Z,7.3
2019-03-03T00:38:34.796Z,7.3
2019-03-03T00:39:34.788Z,7.29
2019-03-03T00:40:34.811Z,7.29
2019-03-03T00:41:34.780Z,7.3
2019-03-03T00:42:34.798Z,7.3
2019-03-03T00:43:34.858Z,7.29
2019-03-03T00:44:34.808Z,7.29
2019-03-03T00:45:34.794Z,7.29
2019-03-03T00:46:34.790Z,7.28
2019-03-03T00:47:34.765Z,7.28
2019-03-03T00:48:34.821Z,7.27
2019-03-03T00:49:34.784Z,7.29
2019-03-03T00:50:34.767Z,7.28
2019-03-03T00:51:34.774Z,7.26
2019-03-03T00:52:34.757Z,7.26
2019-03-03T00:53:34.788Z,7.27
2019-03-03T00:54:34.757Z,7.25
2019-03-03T00:55:34.778Z,7.26
2019-03-03T00:56:34.768Z,7.28
2019-03-03T00:57:34.755Z,7.27
2019-03-03T00:58:34.785Z,7.25
2019-03-03T00:59:34.748Z,7.27
2019-03-03T01:00:34.753Z,7.27
2019-03-03T01:01:34.782Z,7.26
2019-03-03T01:02:34.768Z,7.27
2019-03-03T01:03:34.782Z,7.27
2019-03-03T01:04:34.770Z,7.29
2019-03-03T01:05:34.763Z,7.27
2019-03-03T01:06:34.746Z,7.26
2019-03-03T01:07:34.759Z,7.28
2019-03-03T01:08:34.742Z,7.27
2019-03-03T01:09:35.081Z,7.27
2019-03-03T01:10:34.777Z,7.27
2019-03-03T01:11:34.760Z,7.26
2019-03-03T01:12:34.746Z,7.28
2019-03-03T01:13:34.752Z,7.26
2019-03-03T01:14:34.746Z,7.27
2019-03-03T01:15:34.765Z,7.26
2019-03-03T01:16:34.767Z,7.28
2019-03-03T01:17:34.816Z,7.24
2019-03-03T01:18:34.753Z,7.25
2019-03-03T01:19:34.732Z,7.25
2019-03-03T01:20:34.719Z,7.25
2019-03-03T01:21:34.726Z,7.25
2019-03-03T01:22:34.731Z,7.27
2019-03-03T01:23:34.734Z,7.27
2019-03-03T01:24:34.729Z,7.27
2019-03-03T01:25:34.717Z,7.24
2019-03-03T01:26:34.719Z,7.27
2019-03-03T01:27:34.716Z,7.26
2019-03-03T01:28:34.742Z,7.24
2019-03-03T01:29:34.752Z,7.24
2019-03-03T01:30:34.734Z,7.24
2019-03-03T01:31:34.860Z,7.21
2019-03-03T01:32:34.727Z,7.22
2019-03-03T01:33:34.752Z,7.23
2019-03-03T01:34:34.727Z,7.22
2019-03-03T01:35:34.759Z,7.22
2019-03-03T01:36:34.716Z,7.22
2019-03-03T01:37:34.707Z,7.2
2019-03-03T01:38:34.713Z,7.22
2019-03-03T01:39:34.715Z,7.21
2019-03-03T01:40:34.708Z,7.21
2019-03-03T01:41:34.691Z,7.22
2019-03-03T01:42:34.699Z,7.2
2019-03-03T01:43:34.706Z,7.22
2019-03-03T01:44:34.696Z,7.2
2019-03-03T01:45:34.690Z,7.2
2019-03-03T01:46:34.729Z,7.22
2019-03-03T01:47:34.690Z,7.22
2019-03-03T01:48:34.734Z,7.21
2019-03-03T01:49:34.675Z,7.21
2019-03-03T01:50:34.694Z,7.23
2019-03-03T01:51:34.689Z,7.22
2019-03-03T01:52:34.676Z,7.21
2019-03-03T01:53:34.868Z,7.21
2019-03-03T01:54:34.747Z,7.21
2019-03-03T01:55:34.721Z,7.22
2019-03-03T01:56:34.730Z,7.2
2019-03-03T01:57:34.650Z,7.21
2019-03-03T01:58:34.675Z,7.22
2019-03-03T01:59:34.697Z,7.19
2019-03-03T02:00:34.679Z,7.2
2019-03-03T02:01:34.699Z,7.2
2019-03-03T02:02:34.711Z,7.19
2019-03-03T02:03:34.645Z,7.21
2019-03-03T02:04:34.673Z,7.2
2019-03-03T02:05:34.655Z,7.21
2019-03-03T02:06:34.664Z,7.21
2019-03-03T02:07:34.660Z,7.21
2019-03-03T02:08:34.663Z,7.18
2019-03-03T02:09:34.665Z,7.18
2019-03-03T02:10:34.648Z,7.18
2019-03-03T02:11:34.655Z,7.17
2019-03-03T02:12:34.698Z,7.18
2019-03-03T02:13:34.697Z,7.19
2019-03-03T02:14:34.681Z,7.18
2019-03-03T02:15:34.680Z,7.16
2019-03-03T02:16:34.655Z,7.18
2019-03-03T02:17:34.666Z,7.17
2019-03-03T02:18:34.641Z,7.2
2019-03-03T02:19:34.650Z,7.2
2019-03-03T02:20:34.663Z,7.2
2019-03-03T02:21:34.625Z,7.17
2019-03-03T02:22:34.661Z,7.18
2019-03-03T02:23:34.826Z,7.18
2019-03-03T02:24:34.778Z,7.17
2019-03-03T02:25:34.671Z,7.17
2019-03-03T02:26:34.669Z,7.2
2019-03-03T02:27:34.633Z,7.18
2019-03-03T02:28:34.634Z,7.17
2019-03-03T02:29:34.642Z,7.17
2019-03-03T02:30:34.669Z,7.15
2019-03-03T02:31:34.628Z,7.17
2019-03-03T02:32:34.677Z,7.17
2019-03-03T02:33:34.633Z,7.16
2019-03-03T02:34:34.663Z,7.15
2019-03-03T02:35:34.629Z,7.13
2019-03-03T02:36:34.689Z,7.15
2019-03-03T02:37:34.660Z,7.14
2019-03-03T02:38:34.606Z,7.15
2019-03-03T02:39:34.653Z,7.17
2019-03-03T02:40:34.654Z,7.16
2019-03-03T02:41:34.629Z,7.16
2019-03-03T02:42:34.617Z,7.14
2019-03-03T02:43:34.607Z,7.15
2019-03-03T02:44:34.627Z,7.15
2019-03-03T02:45:34.592Z,7.15
2019-03-03T02:46:35.862Z,7.16
2019-03-03T02:47:34.626Z,7.12
2019-03-03T02:48:34.621Z,7.13
2019-03-03T02:49:34.658Z,7.14
2019-03-03T02:50:34.646Z,7.13
2019-03-03T02:51:34.617Z,7.14
2019-03-03T02:52:34.635Z,7.1
2019-03-03T02:53:34.681Z,7.12
2019-03-03T02:54:34.640Z,7.11
2019-03-03T02:55:34.633Z,7.14
2019-03-03T02:56:34.630Z,7.14
2019-03-03T02:57:34.600Z,7.13
2019-03-03T02:58:34.601Z,7.14
2019-03-03T02:59:34.615Z,7.13
2019-03-03T03:00:34.914Z,7.1
2019-03-03T03:01:34.620Z,7.12
2019-03-03T03:02:34.590Z,7.12
2019-03-03T03:03:34.611Z,7.12
2019-03-03T03:04:34.595Z,7.11
2019-03-03T03:05:34.617Z,7.12
2019-03-03T03:06:34.645Z,7.12
2019-03-03T03:07:34.890Z,7.11
2019-03-03T03:08:34.668Z,7.11
2019-03-03T03:09:34.624Z,7.11
2019-03-03T03:10:34.608Z,7.1
2019-03-03T03:11:34.582Z,7.08
2019-03-03T03:12:34.601Z,7.07
2019-03-03T03:13:34.604Z,7.09
2019-03-03T03:14:34.589Z,7.08
2019-03-03T03:15:34.597Z,7.07
2019-03-03T03:16:34.620Z,7.07
2019-03-03T03:17:34.593Z,7.06
2019-03-03T03:18:34.553Z,7.04
2019-03-03T03:19:34.600Z,7.03
2019-03-03T03:20:34.613Z,7.06
2019-03-03T03:21:34.550Z,7.04
2019-03-03T03:22:34.595Z,7.05
2019-03-03T03:23:34.674Z,7.05
2019-03-03T03:24:34.559Z,7.03
2019-03-03T03:25:34.578Z,7.03
2019-03-03T03:26:34.620Z,7.03
2019-03-03T03:27:34.590Z,7.04
2019-03-03T03:28:34.567Z,7.03
2019-03-03T03:29:35.037Z,7.01
2019-03-03T03:30:34.636Z,7.02
2019-03-03T03:31:34.612Z,6.99
2019-03-03T03:32:34.642Z,6.99
2019-03-03T03:33:34.626Z,7
2019-03-03T03:34:34.652Z,6.99
2019-03-03T03:35:34.571Z,6.99
2019-03-03T03:36:37.325Z,6.99
2019-03-03T03:37:34.587Z,6.99
2019-03-03T03:38:34.545Z,6.98
2019-03-03T03:39:34.570Z,6.98
2019-03-03T03:40:34.551Z,6.97
2019-03-03T03:41:34.557Z,6.97
2019-03-03T03:42:34.551Z,6.97
2019-03-03T03:43:34.595Z,6.97
2019-03-03T03:44:34.543Z,6.99
2019-03-03T03:45:34.579Z,6.99
2019-03-03T03:46:34.546Z,6.97
2019-03-03T03:47:34.553Z,6.97
2019-03-03T03:48:34.531Z,6.97
2019-03-03T03:49:34.549Z,6.98
2019-03-03T03:50:34.562Z,6.97
2019-03-03T03:51:34.608Z,6.97
2019-03-03T03:52:34.597Z,6.98
2019-03-03T03:53:34.605Z,6.97
2019-03-03T03:54:34.557Z,6.98
2019-03-03T03:55:34.551Z,6.98
2019-03-03T03:56:34.553Z,6.98
2019-03-03T03:57:34.506Z,6.99
2019-03-03T03:58:34.561Z,6.98
2019-03-03T03:59:34.577Z,6.98
2019-03-03T04:00:34.550Z,6.98
2019-03-03T04:01:34.636Z,6.98
2019-03-03T04:02:34.569Z,6.99
2019-03-03T04:03:34.536Z,6.98
2019-03-03T04:04:34.524Z,6.99
2019-03-03T04:05:34.529Z,6.99
2019-03-03T04:06:34.536Z,6.99
2019-03-03T04:07:34.508Z,6.99
2019-03-03T04:08:34.526Z,7
2019-03-03T04:09:34.524Z,6.99
2019-03-03T04:10:34.484Z,6.99
2019-03-03T04:11:34.494Z,7
2019-03-03T04:12:34.545Z,6.99
2019-03-03T04:13:34.646Z,7
2019-03-03T04:14:35.132Z,6.99
2019-03-03T04:15:34.479Z,7
2019-03-03T04:16:34.520Z,7.01
2019-03-03T04:17:34.499Z,7.01
2019-03-03T04:18:34.530Z,7.02
2019-03-03T04:19:34.528Z,7.02
2019-03-03T04:20:34.498Z,7.03
2019-03-03T04:21:34.507Z,7.04
2019-03-03T04:22:34.498Z,7.04
2019-03-03T04:23:34.477Z,7.02
2019-03-03T04:24:34.511Z,7.02
2019-03-03T04:25:34.481Z,7.04
2019-03-03T04:26:34.487Z,7.04
2019-03-03T04:27:34.490Z,7.05
2019-03-03T04:28:34.513Z,7.05
2019-03-03T04:29:34.484Z,7.05
2019-03-03T04:30:34.486Z,7.05
2019-03-03T04:31:34.508Z,7.05
2019-03-03T04:32:34.462Z,7.06
2019-03-03T04:33:34.441Z,7.06
2019-03-03T04:34:34.453Z,7.06
2019-03-03T04:35:34.465Z,7.07
2019-03-03T04:36:34.479Z,7.08
2019-03-03T04:37:34.473Z,7.08
2019-03-03T04:38:34.448Z,7.07
2019-03-03T04:39:34.454Z,7.09
2019-03-03T04:40:34.451Z,7.09
2019-03-03T04:41:34.445Z,7.09
2019-03-03T04:42:34.460Z,7.08
2019-03-03T04:43:34.465Z,7.08
2019-03-03T04:44:34.462Z,7.07
2019-03-03T04:45:34.450Z,7.1
2019-03-03T04:46:34.487Z,7.1
2019-03-03T04:47:34.453Z,7.09
2019-03-03T04:48:34.510Z,7.1
2019-03-03T04:49:34.527Z,7.08
2019-03-03T04:50:34.456Z,7.08
2019-03-03T04:51:34.456Z,7.1
2019-03-03T04:52:34.449Z,7.12
2019-03-03T04:53:34.480Z,7.1
2019-03-03T04:54:34.454Z,7.09
2019-03-03T04:55:34.468Z,7.1
2019-03-03T04:56:34.417Z,7.1
2019-03-03T04:57:34.475Z,7.1
2019-03-03T04:58:34.569Z,7.11
2019-03-03T04:59:34.520Z,7.11
2019-03-03T05:00:34.447Z,7.08
2019-03-03T05:01:34.460Z,7.07
2019-03-03T05:02:34.440Z,7.11
2019-03-03T05:03:34.443Z,7.11
2019-03-03T05:04:34.463Z,7.1
2019-03-03T05:05:34.438Z,7.12
2019-03-03T05:06:34.465Z,7.1
2019-03-03T05:07:34.489Z,7.09
2019-03-03T05:08:34.471Z,7.1
2019-03-03T05:09:34.430Z,7.1
2019-03-03T05:10:34.436Z,7.1
2019-03-03T05:11:34.415Z,7.13
2019-03-03T05:12:34.428Z,7.12
2019-03-03T05:13:34.511Z,7.11
2019-03-03T05:14:34.437Z,7.11
2019-03-03T05:15:34.427Z,7.12
2019-03-03T05:16:34.455Z,7.1
2019-03-03T05:17:34.419Z,7.13
2019-03-03T05:18:34.422Z,7.13
2019-03-03T05:19:34.395Z,7.12
2019-03-03T05:20:34.418Z,7.12
2019-03-03T05:21:34.728Z,7.13
2019-03-03T05:22:34.387Z,7.11
2019-03-03T05:23:34.407Z,7.11
2019-03-03T05:24:34.906Z,7.11
2019-03-03T05:25:34.401Z,7.09
2019-03-03T05:26:34.412Z,7.11
2019-03-03T05:27:34.412Z,7.08
2019-03-03T05:28:34.412Z,7.11
2019-03-03T05:29:34.411Z,7.11
2019-03-03T05:30:34.388Z,7.1
2019-03-03T05:31:34.384Z,7.12
2019-03-03T05:32:34.395Z,7.09
2019-03-03T05:33:34.379Z,7.07
2019-03-03T05:34:34.385Z,7.08
2019-03-03T05:35:34.404Z,7.12
2019-03-03T05:36:34.394Z,7.09
2019-03-03T05:37:34.402Z,7.09
2019-03-03T05:38:34.456Z,7.11
2019-03-03T05:39:34.395Z,7.13
2019-03-03T05:40:34.402Z,7.12
2019-03-03T05:41:34.378Z,7.11
2019-03-03T05:42:34.385Z,7.1
2019-03-03T05:43:34.573Z,7.11
2019-03-03T05:44:34.368Z,7.08
2019-03-03T05:45:34.348Z,7.09
2019-03-03T05:46:34.355Z,7.11
2019-03-03T05:47:34.474Z,7.1
2019-03-03T05:48:34.395Z,7.1
2019-03-03T05:49:34.339Z,7.09
2019-03-03T05:50:34.358Z,7.09
2019-03-03T05:51:34.351Z,7.11
2019-03-03T05:52:34.383Z,7.11
2019-03-03T05:53:34.362Z,7.11
2019-03-03T05:54:34.346Z,7.11
2019-03-03T05:55:34.368Z,7.11
2019-03-03T05:56:34.337Z,7.11
2019-03-03T05:57:34.362Z,7.1
2019-03-03T05:58:34.338Z,7.11
2019-03-03T05:59:34.344Z,7.11
2019-03-03T06:00:34.406Z,7.11
2019-03-03T06:01:34.565Z,7.11
2019-03-03T06:02:34.350Z,7.1
2019-03-03T06:03:34.342Z,7.12
2019-03-03T06:04:34.366Z,7.09
2019-03-03T06:05:34.417Z,7.11
2019-03-03T06:06:34.412Z,7.13
2019-03-03T06:07:34.332Z,7.11
2019-03-03T06:08:34.332Z,7.1
2019-03-03T06:09:34.325Z,7.1
2019-03-03T06:10:34.317Z,7.09
2019-03-03T06:11:34.328Z,7.08
2019-03-03T06:12:34.330Z,7.07
2019-03-03T06:13:34.343Z,7.07
2019-03-03T06:14:34.343Z,7.05
2019-03-03T06:15:34.379Z,7.05
2019-03-03T06:16:34.329Z,7.04
2019-03-03T06:17:34.310Z,7.07
2019-03-03T06:18:34.349Z,7.08
2019-03-03T06:19:34.337Z,7.05
2019-03-03T06:20:34.308Z,7.05
2019-03-03T06:21:34.316Z,7.05
2019-03-03T06:22:34.316Z,7.04
2019-03-03T06:23:34.313Z,7.05
2019-03-03T06:24:34.320Z,7.03
2019-03-03T06:25:34.322Z,7.02
2019-03-03T06:26:34.317Z,7.02
2019-03-03T06:27:34.369Z,7.03
2019-03-03T06:28:34.311Z,7.02
2019-03-03T06:29:34.318Z,7.03
2019-03-03T06:30:34.323Z,7.01
2019-03-03T06:31:34.289Z,7.02
2019-03-03T06:32:34.302Z,7
2019-03-03T06:33:34.358Z,7
2019-03-03T06:34:34.293Z,7.01
2019-03-03T06:35:34.300Z,7
2019-03-03T06:36:34.305Z,6.99
2019-03-03T06:37:34.292Z,7.01
2019-03-03T06:38:34.301Z,6.99
2019-03-03T06:39:34.357Z,7
2019-03-03T06:40:34.292Z,6.94
2019-03-03T06:41:34.281Z,6.93
2019-03-03T06:42:34.319Z,6.95
2019-03-03T06:43:34.282Z,6.94
2019-03-03T06:44:34.303Z,6.96
2019-03-03T06:45:34.288Z,6.94
2019-03-03T06:46:34.287Z,6.93
2019-03-03T06:47:34.280Z,6.94
2019-03-03T06:48:34.276Z,6.95
2019-03-03T06:49:34.405Z,6.94
2019-03-03T06:50:34.311Z,6.95
2019-03-03T06:51:34.369Z,6.94
2019-03-03T06:52:34.293Z,6.94
2019-03-03T06:53:34.279Z,6.92
2019-03-03T06:54:34.288Z,6.9
2019-03-03T06:55:34.282Z,6.92
2019-03-03T06:56:34.287Z,6.91
2019-03-03T06:57:34.280Z,6.92
2019-03-03T06:58:34.252Z,6.92
2019-03-03T06:59:34.300Z,6.92
2019-03-03T07:00:34.251Z,6.92
2019-03-03T07:01:34.273Z,6.95
2019-03-03T07:02:34.250Z,6.95
2019-03-03T07:03:34.269Z,6.95
2019-03-03T07:04:34.252Z,6.94
2019-03-03T07:05:34.257Z,6.95
2019-03-03T07:06:34.262Z,6.93
2019-03-03T07:07:34.257Z,6.93
2019-03-03T07:08:34.286Z,6.93
2019-03-03T07:09:34.279Z,6.92
2019-03-03T07:10:34.274Z,6.92
2019-03-03T07:11:34.329Z,6.93
2019-03-03T07:12:34.246Z,6.94
2019-03-03T07:13:34.274Z,6.95
2019-03-03T07:14:34.245Z,6.96
2019-03-03T07:15:34.250Z,6.93
2019-03-03T07:16:34.238Z,6.94
2019-03-03T07:17:34.251Z,6.94
2019-03-03T07:18:34.240Z,6.96
2019-03-03T07:19:34.234Z,6.97
2019-03-03T07:20:34.242Z,6.98
2019-03-03T07:21:34.246Z,6.97
2019-03-03T07:22:34.226Z,6.99
2019-03-03T07:23:34.241Z,6.98
2019-03-03T07:24:34.236Z,6.98
2019-03-03T07:25:34.218Z,6.99
2019-03-03T07:26:34.250Z,6.98
2019-03-03T07:27:34.261Z,6.99
2019-03-03T07:28:34.222Z,6.94
2019-03-03T07:29:34.224Z,6.97
2019-03-03T07:30:34.225Z,6.97
2019-03-03T07:31:34.263Z,6.98
2019-03-03T07:32:34.285Z,6.99
2019-03-03T07:33:34.467Z,6.99
2019-03-03T07:34:34.233Z,6.98
2019-03-03T07:35:34.232Z,6.99
2019-03-03T07:36:34.286Z,7
2019-03-03T07:37:34.199Z,7.01
2019-03-03T07:38:34.214Z,7.02
2019-03-03T07:39:34.226Z,7.01
2019-03-03T07:40:34.203Z,7.04
2019-03-03T07:41:34.241Z,7.03
2019-03-03T07:42:34.211Z,7.04
2019-03-03T07:43:34.197Z,7.03
2019-03-03T07:44:34.188Z,7.04
2019-03-03T07:45:34.204Z,7.05
2019-03-03T07:46:34.199Z,7.05
2019-03-03T07:47:34.189Z,7.04
2019-03-03T07:48:34.203Z,7.03
2019-03-03T07:49:34.200Z,7.02
2019-03-03T07:50:34.208Z,7.03
2019-03-03T07:51:34.218Z,7.02
2019-03-03T07:52:34.207Z,7.02
2019-03-03T07:53:34.192Z,6.99
2019-03-03T07:54:34.200Z,6.99
2019-03-03T07:55:34.269Z,7
2019-03-03T07:56:34.193Z,7.02
2019-03-03T07:57:34.212Z,6.98
2019-03-03T07:58:34.197Z,7
2019-03-03T07:59:34.179Z,7
2019-03-03T08:00:34.213Z,6.99
2019-03-03T08:01:34.203Z,6.96
2019-03-03T08:02:34.213Z,6.94
2019-03-03T08:03:34.187Z,6.92
2019-03-03T08:04:34.191Z,6.91
2019-03-03T08:05:34.200Z,6.92
2019-03-03T08:06:34.227Z,6.92
2019-03-03T08:07:34.177Z,6.93
2019-03-03T08:08:34.179Z,6.92
2019-03-03T08:09:34.166Z,6.9
2019-03-03T08:10:34.181Z,6.9
2019-03-03T08:11:34.156Z,6.88
2019-03-03T08:12:34.172Z,6.88
2019-03-03T08:13:34.236Z,6.91
2019-03-03T08:14:34.162Z,6.92
2019-03-03T08:15:34.211Z,6.92
2019-03-03T08:16:34.163Z,6.95
2019-03-03T08:17:34.210Z,6.92
2019-03-03T08:18:34.158Z,6.94
2019-03-03T08:19:34.167Z,6.95
2019-03-03T08:20:34.180Z,6.95
2019-03-03T08:21:34.139Z,6.95
2019-03-03T08:22:34.286Z,6.93
2019-03-03T08:23:34.166Z,6.91
2019-03-03T08:24:34.137Z,6.91
2019-03-03T08:25:34.172Z,6.94
2019-03-03T08:26:34.155Z,6.96
2019-03-03T08:27:34.176Z,6.96
2019-03-03T08:28:34.192Z,6.98
2019-03-03T08:29:34.182Z,6.99
2019-03-03T08:30:34.215Z,6.98
2019-03-03T08:31:34.154Z,6.99
2019-03-03T08:32:34.210Z,6.99
2019-03-03T08:33:34.189Z,6.98
2019-03-03T08:34:34.154Z,7.01
2019-03-03T08:35:34.147Z,7.01
2019-03-03T08:36:34.197Z,7.02
2019-03-03T08:37:34.145Z,7.04
2019-03-03T08:38:34.193Z,6.98
2019-03-03T08:39:34.394Z,7
2019-03-03T08:40:34.130Z,6.97
2019-03-03T08:41:34.341Z,6.98
2019-03-03T08:42:34.141Z,7
2019-03-03T08:43:34.170Z,7.01
2019-03-03T08:44:34.169Z,7.02
2019-03-03T08:45:34.120Z,6.99
2019-03-03T08:46:34.333Z,6.98
2019-03-03T08:47:34.186Z,6.99
2019-03-03T08:48:34.122Z,6.98
2019-03-03T08:49:34.134Z,6.97
2019-03-03T08:50:34.114Z,6.98
2019-03-03T08:51:34.131Z,6.97
2019-03-03T08:52:34.123Z,6.99
2019-03-03T08:53:34.180Z,6.98
2019-03-03T08:54:34.161Z,6.99
2019-03-03T08:55:34.099Z,6.99
2019-03-03T08:56:34.102Z,7
2019-03-03T08:57:34.112Z,7.03
2019-03-03T08:58:34.127Z,7
2019-03-03T08:59:34.108Z,7.02
2019-03-03T09:00:34.105Z,7.04
2019-03-03T09:01:34.129Z,7.03
2019-03-03T09:02:34.118Z,6.98
2019-03-03T09:03:34.067Z,6.98
2019-03-03T09:04:34.119Z,6.99
2019-03-03T09:05:34.097Z,6.99
2019-03-03T09:06:34.092Z,7.01
2019-03-03T09:07:34.110Z,7.03
2019-03-03T09:08:34.101Z,7.03
2019-03-03T09:09:34.080Z,7.03
2019-03-03T09:10:34.083Z,7.02
2019-03-03T09:11:34.092Z,7.01
2019-03-03T09:12:34.336Z,7.02
2019-03-03T09:13:34.103Z,7.03
2019-03-03T09:14:34.124Z,7.02
2019-03-03T09:15:34.089Z,7.01
2019-03-03T09:16:34.132Z,7.03
2019-03-03T09:17:34.126Z,7.06
2019-03-03T09:18:34.173Z,7.06
2019-03-03T09:19:34.071Z,7.06
2019-03-03T09:20:34.059Z,7.01
2019-03-03T09:21:34.149Z,7.03
2019-03-03T09:22:34.068Z,7.05
2019-03-03T09:23:34.082Z,7.06
2019-03-03T09:24:34.055Z,7.06
2019-03-03T09:25:34.078Z,7.06
2019-03-03T09:26:34.080Z,7.06
2019-03-03T09:27:34.067Z,7.07
2019-03-03T09:28:34.314Z,7.07
2019-03-03T09:29:34.322Z,7.05
2019-03-03T09:30:34.056Z,7.05
2019-03-03T09:31:34.074Z,7.04
2019-03-03T09:32:34.087Z,7.04
2019-03-03T09:33:34.041Z,7.02
2019-03-03T09:34:34.056Z,7.01
2019-03-03T09:35:34.048Z,7.01
2019-03-03T09:36:34.048Z,7.03
2019-03-03T09:37:34.061Z,7.02
2019-03-03T09:38:34.054Z,7.01
2019-03-03T09:39:34.070Z,7.01
2019-03-03T09:40:34.113Z,7.01
2019-03-03T09:41:34.059Z,7.04
2019-03-03T09:42:34.058Z,7.05
2019-03-03T09:43:34.071Z,7.08
2019-03-03T09:44:34.044Z,7.08
2019-03-03T09:45:34.055Z,7.1
2019-03-03T09:46:34.056Z,7.08
2019-03-03T09:47:34.036Z,7.06
2019-03-03T09:48:34.010Z,7
2019-03-03T09:49:34.095Z,7.03
2019-03-03T09:50:34.063Z,7.05
2019-03-03T09:51:34.021Z,7.05
2019-03-03T09:52:34.023Z,7.06
2019-03-03T09:53:34.037Z,7.07
2019-03-03T09:54:34.031Z,7.04
2019-03-03T09:55:34.031Z,7.07
2019-03-03T09:56:34.067Z,7.07
2019-03-03T09:57:33.992Z,7.08
2019-03-03T09:58:33.998Z,7.08
2019-03-03T09:59:34.019Z,7.09
2019-03-03T10:00:34.038Z,7.06
2019-03-03T10:01:34.020Z,7.05
2019-03-03T10:02:34.023Z,7.04
2019-03-03T10:03:33.998Z,7.04
2019-03-03T10:04:33.993Z,7.06
2019-03-03T10:05:34.039Z,7.08
2019-03-03T10:06:34.262Z,7.08
2019-03-03T10:07:34.175Z,7.09
2019-03-03T10:08:33.989Z,7.06
2019-03-03T10:09:34.009Z,7.03
2019-03-03T10:10:34.048Z,7.04
2019-03-03T10:11:33.982Z,7.07
2019-03-03T10:12:34.032Z,7.09
2019-03-03T10:13:33.994Z,7.03
2019-03-03T10:14:34.010Z,7.04
2019-03-03T10:15:34.008Z,7.06
2019-03-03T10:16:34.090Z,7.04
2019-03-03T10:17:34.005Z,7.01
2019-03-03T10:18:34.020Z,7.04
2019-03-03T10:19:34.022Z,7.05
2019-03-03T10:20:34.000Z,7.05
2019-03-03T10:21:33.977Z,7.08
2019-03-03T10:22:34.006Z,7.06
2019-03-03T10:23:33.997Z,7.07
2019-03-03T10:24:34.002Z,7.04
2019-03-03T10:25:33.984Z,7.07
2019-03-03T10:26:35.320Z,7.06
2019-03-03T10:27:34.014Z,7.07
2019-03-03T10:28:34.013Z,7.04
2019-03-03T10:29:34.350Z,7.07
2019-03-03T10:30:34.015Z,7.08
2019-03-03T10:31:34.025Z,7.1
2019-03-03T10:32:34.000Z,7.11
2019-03-03T10:33:33.988Z,7.13
2019-03-03T10:34:34.012Z,7.11
2019-03-03T10:35:34.010Z,7.13
2019-03-03T10:36:33.971Z,7.13
2019-03-03T10:37:34.008Z,7.11
2019-03-03T10:38:36.622Z,7.08
2019-03-03T10:39:33.958Z,7.07
2019-03-03T10:40:33.981Z,7.08
2019-03-03T10:41:34.027Z,7.09
2019-03-03T10:42:33.967Z,7.12
2019-03-03T10:43:33.962Z,7.12
2019-03-03T10:44:34.026Z,7.11
2019-03-03T10:45:33.997Z,7.08
2019-03-03T10:46:34.000Z,7.08
2019-03-03T10:47:33.964Z,7.08
2019-03-03T10:48:33.948Z,7.07
2019-03-03T10:49:33.949Z,7.08
2019-03-03T10:50:34.010Z,7.06
2019-03-03T10:51:33.953Z,7.08
2019-03-03T10:52:34.011Z,7.07
2019-03-03T10:53:33.947Z,7.06
2019-03-03T10:54:33.942Z,7.09
2019-03-03T10:55:33.967Z,7.08
2019-03-03T10:56:33.952Z,7.11
2019-03-03T10:57:34.049Z,7.09
2019-03-03T10:58:33.939Z,7.05
2019-03-03T10:59:34.046Z,7.07
2019-03-03T11:00:33.933Z,7.08
2019-03-03T11:01:33.986Z,7.08
2019-03-03T11:02:33.947Z,7.08
2019-03-03T11:03:33.940Z,7.07
2019-03-03T11:04:33.954Z,7.03
2019-03-03T11:05:33.938Z,7.03
2019-03-03T11:06:33.945Z,7.04
2019-03-03T11:07:33.926Z,7.06
2019-03-03T11:08:33.941Z,7.08
2019-03-03T11:09:33.940Z,7.07
2019-03-03T11:10:33.945Z,7.05
2019-03-03T11:11:33.953Z,7.05
2019-03-03T11:12:34.038Z,7.05
2019-03-03T11:13:33.967Z,7.07
2019-03-03T11:14:33.927Z,7.08
2019-03-03T11:15:33.933Z,7.08
2019-03-03T11:16:33.924Z,7.09
2019-03-03T11:17:33.931Z,7.07
2019-03-03T11:18:33.921Z,7.08
2019-03-03T11:19:34.005Z,7.08
2019-03-03T11:20:33.938Z,7.06
2019-03-03T11:21:33.951Z,7.06
2019-03-03T11:22:34.009Z,7.06
2019-03-03T11:23:33.977Z,7.05
2019-03-03T11:24:33.921Z,7.06
2019-03-03T11:25:33.897Z,7.09
2019-03-03T11:26:33.916Z,7.1
2019-03-03T11:27:33.956Z,7.09
2019-03-03T11:28:33.923Z,7.11
2019-03-03T11:29:33.918Z,7.11
2019-03-03T11:30:33.923Z,7.08
2019-03-03T11:31:33.923Z,7.07
2019-03-03T11:32:33.919Z,7.07
2019-03-03T11:33:33.934Z,7.09
2019-03-03T11:34:33.949Z,7.09
2019-03-03T11:35:33.897Z,7.11
2019-03-03T11:36:33.950Z,7.11
2019-03-03T11:37:33.900Z,7.09
2019-03-03T11:38:33.890Z,7.11
2019-03-03T11:39:33.899Z,7.07
2019-03-03T11:40:33.900Z,7.09
2019-03-03T11:41:33.959Z,7.09
2019-03-03T11:42:33.925Z,7.07
2019-03-03T11:43:33.935Z,7.1
2019-03-03T11:44:33.963Z,7.1
2019-03-03T11:45:33.944Z,7.08
2019-03-03T11:46:33.934Z,7.08
2019-03-03T11:47:33.886Z,7.08
2019-03-03T11:48:33.920Z,7.08
2019-03-03T11:49:33.870Z,7.08
2019-03-03T11:50:33.875Z,7.08
2019-03-03T11:51:33.920Z,7.06
2019-03-03T11:52:34.012Z,7.1
2019-03-03T11:53:33.897Z,7.11
2019-03-03T11:54:33.887Z,7.09
2019-03-03T11:55:33.888Z,7.09
2019-03-03T11:56:33.893Z,7.11
2019-03-03T11:57:33.886Z,7.1
2019-03-03T11:58:33.863Z,7.11
2019-03-03T11:59:33.921Z,7.1
2019-03-03T12:00:33.872Z,7.09
2019-03-03T12:01:33.877Z,7.09
2019-03-03T12:02:33.859Z,7.09
2019-03-03T12:03:33.856Z,7.1
2019-03-03T12:04:33.930Z,7.11
2019-03-03T12:05:33.909Z,7.13
2019-03-03T12:06:33.909Z,7.09
2019-03-03T12:07:33.870Z,7.08
2019-03-03T12:08:33.851Z,7.08
2019-03-03T12:09:33.889Z,7.07
2019-03-03T12:10:34.452Z,7.1
2019-03-03T12:11:33.841Z,7.09
2019-03-03T12:12:33.850Z,7.09
2019-03-03T12:13:33.855Z,7.09
2019-03-03T12:14:33.854Z,7.11
2019-03-03T12:15:33.835Z,7.1
2019-03-03T12:16:33.866Z,7.09
2019-03-03T12:17:35.480Z,7.1
2019-03-03T12:18:34.240Z,7.14
2019-03-03T12:19:33.864Z,7.16
2019-03-03T12:20:33.834Z,7.16
2019-03-03T12:21:33.870Z,7.14
2019-03-03T12:22:33.855Z,7.16
2019-03-03T12:23:33.843Z,7.17
2019-03-03T12:24:33.846Z,7.2
2019-03-03T12:25:33.826Z,7.22
2019-03-03T12:26:33.833Z,7.21
2019-03-03T12:27:33.845Z,7.16
2019-03-03T12:28:33.866Z,7.16
2019-03-03T12:29:33.832Z,7.13
2019-03-03T12:30:33.838Z,7.14
2019-03-03T12:31:33.875Z,7.13
2019-03-03T12:32:33.820Z,7.15
2019-03-03T12:33:33.835Z,7.14
2019-03-03T12:34:33.843Z,7.15
2019-03-03T12:35:33.890Z,7.13
2019-03-03T12:36:33.842Z,7.16
2019-03-03T12:37:33.840Z,7.13
2019-03-03T12:38:33.820Z,7.15
2019-03-03T12:39:33.823Z,7.13
2019-03-03T12:40:33.919Z,7.15
2019-03-03T12:41:33.809Z,7.15
2019-03-03T12:42:33.821Z,7.15
2019-03-03T12:43:33.823Z,7.15
2019-03-03T12:44:33.866Z,7.11
2019-03-03T12:45:33.822Z,7.13
2019-03-03T12:46:33.819Z,7.14
2019-03-03T12:47:33.871Z,7.15
2019-03-03T12:48:33.834Z,7.16
2019-03-03T12:49:33.816Z,7.14
2019-03-03T12:50:33.788Z,7.15
2019-03-03T12:51:33.874Z,7.14
2019-03-03T12:52:33.890Z,7.17
2019-03-03T12:53:34.971Z,7.18
2019-03-03T12:54:33.851Z,7.17
2019-03-03T12:55:33.810Z,7.16
2019-03-03T12:56:33.834Z,7.18
2019-03-03T12:57:33.827Z,7.18
2019-03-03T12:58:33.803Z,7.15
2019-03-03T12:59:33.839Z,7.13
2019-03-03T13:00:33.811Z,7.11
2019-03-03T13:01:33.919Z,7.11
2019-03-03T13:02:33.849Z,7.08
2019-03-03T13:03:33.794Z,7.11
2019-03-03T13:04:33.804Z,7.1
2019-03-03T13:05:33.792Z,7.06
2019-03-03T13:06:33.803Z,7.08
2019-03-03T13:07:33.799Z,7.09
2019-03-03T13:08:33.816Z,7.08
2019-03-03T13:09:33.776Z,7.1
2019-03-03T13:10:33.769Z,7.1
2019-03-03T13:11:33.984Z,7.11
2019-03-03T13:12:33.780Z,7.08
2019-03-03T13:13:33.778Z,7.07
2019-03-03T13:14:33.758Z,7.09
2019-03-03T13:15:33.785Z,7.08
2019-03-03T13:16:33.823Z,7.11
2019-03-03T13:17:33.784Z,7.12
2019-03-03T13:18:33.879Z,7.14
2019-03-03T13:19:33.812Z,7.13
2019-03-03T13:20:33.764Z,7.11
2019-03-03T13:21:33.797Z,7.07
2019-03-03T13:22:33.799Z,7.09